sensor_id;sensor_type;location;lat;lon;timestamp;P1;durP1;ratioP1;P2;durP2;ratioP2
30173;SDS011;16985;50.814;8.530;2023-02-03T00:01:32;22.13;;;13.50;;
30173;SDS011;16985;50.814;8.530;2023-02-03T00:04:07;19.20;;;13.98;;
30173;SDS011;16985;50.814;8.530;2023-02-03T00:06:33;17.48;;;13.20;;
30173;SDS011;16985;50.814;8.530;2023-02-03T00:08:59;19.38;;;13.15;;
30173;SDS011;16985;50.814;8.530;2023-02-03T00:11:29;16.25;;;12.05;;
30173;SDS011;16985;50.814;8.530;2023-02-03T00:14:02;19.25;;;13.00;;
30173;SDS011;16985;50.814;8.530;2023-02-03T00:16:29;20.27;;;14.38;;
30173;SDS011;16985;50.814;8.530;2023-02-03T00:18:55;22.05;;;13.80;;
30173;SDS011;16985;50.814;8.530;2023-02-03T00:21:21;19.65;;;14.00;;
30173;SDS011;16985;50.814;8.530;2023-02-03T00:23:48;23.65;;;15.43;;
30173;SDS011;16985;50.814;8.530;2023-02-03T00:26:14;20.42;;;14.70;;
30173;SDS011;16985;50.814;8.530;2023-02-03T00:28:43;19.17;;;14.20;;
30173;SDS011;16985;50.814;8.530;2023-02-03T00:31:16;24.55;;;15.60;;
30173;SDS011;16985;50.814;8.530;2023-02-03T00:33:47;18.92;;;14.57;;
30173;SDS011;16985;50.814;8.530;2023-02-03T00:36:18;23.88;;;15.40;;
30173;SDS011;16985;50.814;8.530;2023-02-03T00:38:44;22.65;;;15.27;;
30173;SDS011;16985;50.814;8.530;2023-02-03T00:41:10;22.98;;;14.50;;
30173;SDS011;16985;50.814;8.530;2023-02-03T00:43:37;23.23;;;14.75;;
30173;SDS011;16985;50.814;8.530;2023-02-03T00:46:03;20.35;;;13.88;;
30173;SDS011;16985;50.814;8.530;2023-02-03T00:48:29;26.98;;;14.88;;
30173;SDS011;16985;50.814;8.530;2023-02-03T00:50:57;18.60;;;14.18;;
30173;SDS011;16985;50.814;8.530;2023-02-03T00:53:23;20.48;;;14.00;;
30173;SDS011;16985;50.814;8.530;2023-02-03T00:55:50;23.50;;;13.90;;
30173;SDS011;16985;50.814;8.530;2023-02-03T00:58:16;18.13;;;13.75;;
30173;SDS011;16985;50.814;8.530;2023-02-03T01:00:42;22.63;;;14.30;;
30173;SDS011;16985;50.814;8.530;2023-02-03T01:03:08;23.20;;;14.45;;
30173;SDS011;16985;50.814;8.530;2023-02-03T01:05:35;18.65;;;13.38;;
30173;SDS011;16985;50.814;8.530;2023-02-03T01:08:01;19.02;;;13.27;;
30173;SDS011;16985;50.814;8.530;2023-02-03T01:10:28;18.15;;;13.80;;
30173;SDS011;16985;50.814;8.530;2023-02-03T01:12:54;19.20;;;14.15;;
30173;SDS011;16985;50.814;8.530;2023-02-03T01:15:20;26.40;;;13.65;;
30173;SDS011;16985;50.814;8.530;2023-02-03T01:17:47;18.55;;;12.80;;
30173;SDS011;16985;50.814;8.530;2023-02-03T01:20:13;22.98;;;13.65;;
30173;SDS011;16985;50.814;8.530;2023-02-03T01:22:41;20.90;;;13.63;;
30173;SDS011;16985;50.814;8.530;2023-02-03T01:25:07;20.52;;;13.73;;
30173;SDS011;16985;50.814;8.530;2023-02-03T01:27:33;19.20;;;13.07;;
30173;SDS011;16985;50.814;8.530;2023-02-03T01:29:59;22.38;;;12.95;;
30173;SDS011;16985;50.814;8.530;2023-02-03T01:32:26;21.42;;;14.55;;
30173;SDS011;16985;50.814;8.530;2023-02-03T01:34:52;20.00;;;12.98;;
30173;SDS011;16985;50.814;8.530;2023-02-03T01:37:17;18.08;;;12.88;;
30173;SDS011;16985;50.814;8.530;2023-02-03T01:39:43;17.80;;;13.95;;
30173;SDS011;16985;50.814;8.530;2023-02-03T01:42:12;19.25;;;13.30;;
30173;SDS011;16985;50.814;8.530;2023-02-03T01:44:43;17.80;;;12.82;;
30173;SDS011;16985;50.814;8.530;2023-02-03T01:47:23;20.15;;;12.43;;
30173;SDS011;16985;50.814;8.530;2023-02-03T01:50:02;15.88;;;11.88;;
30173;SDS011;16985;50.814;8.530;2023-02-03T01:52:46;15.40;;;11.50;;
30173;SDS011;16985;50.814;8.530;2023-02-03T01:55:19;18.42;;;12.55;;
30173;SDS011;16985;50.814;8.530;2023-02-03T01:57:51;15.40;;;10.73;;
30173;SDS011;16985;50.814;8.530;2023-02-03T02:00:26;15.38;;;11.27;;
30173;SDS011;16985;50.814;8.530;2023-02-03T02:02:53;17.23;;;11.63;;
30173;SDS011;16985;50.814;8.530;2023-02-03T02:08:28;16.33;;;11.13;;
30173;SDS011;16985;50.814;8.530;2023-02-03T02:10:56;18.23;;;11.18;;
30173;SDS011;16985;50.814;8.530;2023-02-03T02:13:23;16.25;;;11.93;;
30173;SDS011;16985;50.814;8.530;2023-02-03T02:15:53;15.55;;;10.70;;
30173;SDS011;16985;50.814;8.530;2023-02-03T02:30:55;16.90;;;10.55;;
30173;SDS011;16985;50.814;8.530;2023-02-03T02:33:44;25.55;;;11.50;;
30173;SDS011;16985;50.814;8.530;2023-02-03T02:36:34;13.45;;;10.43;;
30173;SDS011;16985;50.814;8.530;2023-02-03T02:39:49;23.10;;;11.93;;
30173;SDS011;16985;50.814;8.530;2023-02-03T02:46:00;17.15;;;10.32;;
30173;SDS011;16985;50.814;8.530;2023-02-03T02:48:39;13.85;;;9.60;;
30173;SDS011;16985;50.814;8.530;2023-02-03T02:51:20;17.60;;;9.93;;
30173;SDS011;16985;50.814;8.530;2023-02-03T02:53:52;14.43;;;9.53;;
30173;SDS011;16985;50.814;8.530;2023-02-03T02:56:26;16.83;;;8.88;;
30173;SDS011;16985;50.814;8.530;2023-02-03T02:58:53;15.47;;;9.23;;
30173;SDS011;16985;50.814;8.530;2023-02-03T03:01:22;16.45;;;9.60;;
30173;SDS011;16985;50.814;8.530;2023-02-03T03:03:48;12.52;;;9.35;;
30173;SDS011;16985;50.814;8.530;2023-02-03T03:08:59;15.23;;;8.90;;
30173;SDS011;16985;50.814;8.530;2023-02-03T03:11:55;14.25;;;8.40;;
30173;SDS011;16985;50.814;8.530;2023-02-03T03:14:30;11.82;;;8.00;;
30173;SDS011;16985;50.814;8.530;2023-02-03T03:16:58;13.48;;;8.20;;
30173;SDS011;16985;50.814;8.530;2023-02-03T03:19:30;16.73;;;8.93;;
30173;SDS011;16985;50.814;8.530;2023-02-03T03:22:02;16.83;;;9.02;;
30173;SDS011;16985;50.814;8.530;2023-02-03T03:24:31;15.93;;;8.32;;
30173;SDS011;16985;50.814;8.530;2023-02-03T03:27:11;20.60;;;7.90;;
30173;SDS011;16985;50.814;8.530;2023-02-03T03:29:46;14.77;;;7.53;;
30173;SDS011;16985;50.814;8.530;2023-02-03T03:32:20;15.73;;;7.60;;
30173;SDS011;16985;50.814;8.530;2023-02-03T03:34:46;12.13;;;6.70;;
30173;SDS011;16985;50.814;8.530;2023-02-03T03:40:11;14.15;;;7.53;;
30173;SDS011;16985;50.814;8.530;2023-02-03T03:42:50;15.15;;;7.15;;
30173;SDS011;16985;50.814;8.530;2023-02-03T03:45:27;12.38;;;7.38;;
30173;SDS011;16985;50.814;8.530;2023-02-03T03:48:22;16.17;;;7.13;;
30173;SDS011;16985;50.814;8.530;2023-02-03T03:50:58;16.15;;;8.80;;
30173;SDS011;16985;50.814;8.530;2023-02-03T03:53:32;12.23;;;7.35;;
30173;SDS011;16985;50.814;8.530;2023-02-03T03:56:03;9.43;;;6.80;;
30173;SDS011;16985;50.814;8.530;2023-02-03T03:58:36;11.30;;;7.30;;
30173;SDS011;16985;50.814;8.530;2023-02-03T04:01:05;12.80;;;6.90;;
30173;SDS011;16985;50.814;8.530;2023-02-03T04:03:35;13.30;;;8.40;;
30173;SDS011;16985;50.814;8.530;2023-02-03T04:06:05;9.75;;;6.97;;
30173;SDS011;16985;50.814;8.530;2023-02-03T04:08:31;10.50;;;6.82;;
30173;SDS011;16985;50.814;8.530;2023-02-03T04:10:57;11.63;;;7.65;;
30173;SDS011;16985;50.814;8.530;2023-02-03T04:13:23;16.65;;;7.80;;
30173;SDS011;16985;50.814;8.530;2023-02-03T04:15:50;13.02;;;6.85;;
30173;SDS011;16985;50.814;8.530;2023-02-03T04:18:16;11.23;;;6.53;;
30173;SDS011;16985;50.814;8.530;2023-02-03T04:20:42;14.65;;;6.90;;
30173;SDS011;16985;50.814;8.530;2023-02-03T04:23:08;15.27;;;6.28;;
30173;SDS011;16985;50.814;8.530;2023-02-03T04:25:34;8.45;;;5.97;;
30173;SDS011;16985;50.814;8.530;2023-02-03T04:28:00;10.55;;;6.38;;
30173;SDS011;16985;50.814;8.530;2023-02-03T04:30:26;9.38;;;6.43;;
30173;SDS011;16985;50.814;8.530;2023-02-03T04:32:52;11.50;;;6.10;;
30173;SDS011;16985;50.814;8.530;2023-02-03T04:35:18;10.10;;;5.72;;
30173;SDS011;16985;50.814;8.530;2023-02-03T04:37:45;18.13;;;6.03;;
30173;SDS011;16985;50.814;8.530;2023-02-03T04:40:11;11.52;;;5.72;;
30173;SDS011;16985;50.814;8.530;2023-02-03T04:42:38;10.65;;;5.75;;
30173;SDS011;16985;50.814;8.530;2023-02-03T04:45:05;9.25;;;6.25;;
30173;SDS011;16985;50.814;8.530;2023-02-03T04:47:33;13.82;;;6.10;;
30173;SDS011;16985;50.814;8.530;2023-02-03T04:49:59;14.93;;;6.90;;
30173;SDS011;16985;50.814;8.530;2023-02-03T04:52:26;8.98;;;6.40;;
30173;SDS011;16985;50.814;8.530;2023-02-03T04:54:52;10.93;;;6.55;;
30173;SDS011;16985;50.814;8.530;2023-02-03T04:57:18;13.27;;;6.32;;
30173;SDS011;16985;50.814;8.530;2023-02-03T04:59:44;14.48;;;7.55;;
30173;SDS011;16985;50.814;8.530;2023-02-03T05:02:10;11.23;;;6.75;;
30173;SDS011;16985;50.814;8.530;2023-02-03T05:04:36;12.38;;;7.22;;
30173;SDS011;16985;50.814;8.530;2023-02-03T05:07:02;8.75;;;6.38;;
30173;SDS011;16985;50.814;8.530;2023-02-03T05:09:28;11.65;;;6.63;;
30173;SDS011;16985;50.814;8.530;2023-02-03T05:11:54;13.30;;;7.05;;
30173;SDS011;16985;50.814;8.530;2023-02-03T05:14:20;10.93;;;6.80;;
30173;SDS011;16985;50.814;8.530;2023-02-03T05:16:46;10.07;;;6.78;;
30173;SDS011;16985;50.814;8.530;2023-02-03T05:19:12;18.90;;;7.03;;
30173;SDS011;16985;50.814;8.530;2023-02-03T05:21:39;22.95;;;7.10;;
30173;SDS011;16985;50.814;8.530;2023-02-03T05:24:05;11.77;;;6.65;;
30173;SDS011;16985;50.814;8.530;2023-02-03T05:26:32;10.40;;;6.32;;
30173;SDS011;16985;50.814;8.530;2023-02-03T05:28:59;8.98;;;6.45;;
30173;SDS011;16985;50.814;8.530;2023-02-03T05:31:25;6.47;;;5.72;;
30173;SDS011;16985;50.814;8.530;2023-02-03T05:33:51;12.02;;;7.30;;
30173;SDS011;16985;50.814;8.530;2023-02-03T05:36:17;10.07;;;6.95;;
30173;SDS011;16985;50.814;8.530;2023-02-03T05:38:43;12.05;;;6.35;;
30173;SDS011;16985;50.814;8.530;2023-02-03T05:41:11;9.63;;;6.70;;
30173;SDS011;16985;50.814;8.530;2023-02-03T05:43:56;11.07;;;6.68;;
30173;SDS011;16985;50.814;8.530;2023-02-03T05:46:22;12.88;;;7.03;;
30173;SDS011;16985;50.814;8.530;2023-02-03T05:48:48;9.95;;;7.00;;
30173;SDS011;16985;50.814;8.530;2023-02-03T05:51:14;10.50;;;7.18;;
30173;SDS011;16985;50.814;8.530;2023-02-03T05:53:40;14.07;;;6.70;;
30173;SDS011;16985;50.814;8.530;2023-02-03T05:56:06;14.40;;;6.70;;
30173;SDS011;16985;50.814;8.530;2023-02-03T05:58:32;11.43;;;6.65;;
30173;SDS011;16985;50.814;8.530;2023-02-03T06:00:58;10.57;;;6.57;;
30173;SDS011;16985;50.814;8.530;2023-02-03T06:03:24;13.57;;;6.85;;
30173;SDS011;16985;50.814;8.530;2023-02-03T06:05:50;13.43;;;6.63;;
30173;SDS011;16985;50.814;8.530;2023-02-03T06:08:16;11.65;;;7.00;;
30173;SDS011;16985;50.814;8.530;2023-02-03T06:10:42;16.42;;;7.03;;
30173;SDS011;16985;50.814;8.530;2023-02-03T06:13:12;12.93;;;6.90;;
30173;SDS011;16985;50.814;8.530;2023-02-03T06:15:39;17.65;;;6.82;;
30173;SDS011;16985;50.814;8.530;2023-02-03T06:18:06;10.27;;;6.95;;
30173;SDS011;16985;50.814;8.530;2023-02-03T06:20:32;10.93;;;6.20;;
30173;SDS011;16985;50.814;8.530;2023-02-03T06:23:01;11.43;;;7.43;;
30173;SDS011;16985;50.814;8.530;2023-02-03T06:25:27;13.30;;;8.27;;
30173;SDS011;16985;50.814;8.530;2023-02-03T06:27:56;12.98;;;7.70;;
30173;SDS011;16985;50.814;8.530;2023-02-03T06:30:23;10.23;;;7.53;;
30173;SDS011;16985;50.814;8.530;2023-02-03T06:32:49;11.10;;;7.35;;
30173;SDS011;16985;50.814;8.530;2023-02-03T06:35:16;12.88;;;8.52;;
30173;SDS011;16985;50.814;8.530;2023-02-03T06:37:42;15.82;;;7.55;;
30173;SDS011;16985;50.814;8.530;2023-02-03T06:40:09;13.55;;;7.80;;
30173;SDS011;16985;50.814;8.530;2023-02-03T06:42:36;11.07;;;5.88;;
30173;SDS011;16985;50.814;8.530;2023-02-03T06:45:02;9.93;;;5.72;;
30173;SDS011;16985;50.814;8.530;2023-02-03T06:47:29;12.43;;;6.40;;
30173;SDS011;16985;50.814;8.530;2023-02-03T06:49:55;10.45;;;6.78;;
30173;SDS011;16985;50.814;8.530;2023-02-03T06:52:21;14.80;;;6.72;;
30173;SDS011;16985;50.814;8.530;2023-02-03T06:54:47;14.15;;;6.90;;
30173;SDS011;16985;50.814;8.530;2023-02-03T06:57:13;10.45;;;6.53;;
30173;SDS011;16985;50.814;8.530;2023-02-03T06:59:39;9.60;;;6.20;;
30173;SDS011;16985;50.814;8.530;2023-02-03T07:02:05;11.73;;;6.75;;
30173;SDS011;16985;50.814;8.530;2023-02-03T07:04:32;13.32;;;7.15;;
30173;SDS011;16985;50.814;8.530;2023-02-03T07:06:58;24.75;;;8.15;;
30173;SDS011;16985;50.814;8.530;2023-02-03T07:09:24;14.20;;;6.88;;
30173;SDS011;16985;50.814;8.530;2023-02-03T07:11:50;13.18;;;7.60;;
30173;SDS011;16985;50.814;8.530;2023-02-03T07:14:16;17.90;;;7.30;;
30173;SDS011;16985;50.814;8.530;2023-02-03T07:16:42;15.25;;;7.28;;
30173;SDS011;16985;50.814;8.530;2023-02-03T07:19:08;8.93;;;6.75;;
30173;SDS011;16985;50.814;8.530;2023-02-03T07:21:34;11.88;;;6.78;;
30173;SDS011;16985;50.814;8.530;2023-02-03T07:24:00;10.40;;;6.68;;
30173;SDS011;16985;50.814;8.530;2023-02-03T07:26:27;14.23;;;7.20;;
30173;SDS011;16985;50.814;8.530;2023-02-03T07:28:53;13.70;;;6.60;;
30173;SDS011;16985;50.814;8.530;2023-02-03T07:31:19;9.50;;;6.50;;
30173;SDS011;16985;50.814;8.530;2023-02-03T07:33:44;14.25;;;6.93;;
30173;SDS011;16985;50.814;8.530;2023-02-03T07:36:10;8.55;;;5.90;;
30173;SDS011;16985;50.814;8.530;2023-02-03T07:38:37;7.93;;;6.25;;
30173;SDS011;16985;50.814;8.530;2023-02-03T07:41:03;15.98;;;7.30;;
30173;SDS011;16985;50.814;8.530;2023-02-03T07:43:30;9.43;;;6.35;;
30173;SDS011;16985;50.814;8.530;2023-02-03T07:45:56;12.20;;;6.38;;
30173;SDS011;16985;50.814;8.530;2023-02-03T07:48:22;11.15;;;7.25;;
30173;SDS011;16985;50.814;8.530;2023-02-03T07:50:48;10.00;;;7.07;;
30173;SDS011;16985;50.814;8.530;2023-02-03T07:53:15;14.20;;;7.07;;
30173;SDS011;16985;50.814;8.530;2023-02-03T07:55:41;14.85;;;6.78;;
30173;SDS011;16985;50.814;8.530;2023-02-03T07:58:07;17.25;;;7.15;;
30173;SDS011;16985;50.814;8.530;2023-02-03T08:00:33;13.13;;;7.72;;
30173;SDS011;16985;50.814;8.530;2023-02-03T08:03:00;10.10;;;6.72;;
30173;SDS011;16985;50.814;8.530;2023-02-03T08:05:26;13.85;;;6.78;;
30173;SDS011;16985;50.814;8.530;2023-02-03T08:07:52;11.50;;;6.35;;
30173;SDS011;16985;50.814;8.530;2023-02-03T08:10:17;13.43;;;6.78;;
30173;SDS011;16985;50.814;8.530;2023-02-03T08:12:44;17.77;;;7.93;;
30173;SDS011;16985;50.814;8.530;2023-02-03T08:15:11;12.30;;;6.22;;
30173;SDS011;16985;50.814;8.530;2023-02-03T08:17:38;16.88;;;6.35;;
30173;SDS011;16985;50.814;8.530;2023-02-03T08:20:06;13.35;;;6.55;;
30173;SDS011;16985;50.814;8.530;2023-02-03T08:22:33;16.13;;;6.50;;
30173;SDS011;16985;50.814;8.530;2023-02-03T08:24:59;11.32;;;5.93;;
30173;SDS011;16985;50.814;8.530;2023-02-03T08:27:25;14.85;;;6.05;;
30173;SDS011;16985;50.814;8.530;2023-02-03T08:29:51;13.23;;;6.47;;
30173;SDS011;16985;50.814;8.530;2023-02-03T08:32:19;12.10;;;6.82;;
30173;SDS011;16985;50.814;8.530;2023-02-03T08:34:46;10.80;;;7.35;;
30173;SDS011;16985;50.814;8.530;2023-02-03T08:37:13;8.93;;;6.32;;
30173;SDS011;16985;50.814;8.530;2023-02-03T08:39:41;12.77;;;6.30;;
30173;SDS011;16985;50.814;8.530;2023-02-03T08:42:08;10.63;;;6.18;;
30173;SDS011;16985;50.814;8.530;2023-02-03T08:44:34;13.85;;;7.82;;
30173;SDS011;16985;50.814;8.530;2023-02-03T08:47:00;12.15;;;7.03;;
30173;SDS011;16985;50.814;8.530;2023-02-03T08:49:27;11.82;;;7.18;;
30173;SDS011;16985;50.814;8.530;2023-02-03T08:51:54;19.88;;;8.10;;
30173;SDS011;16985;50.814;8.530;2023-02-03T08:54:21;9.50;;;6.38;;
30173;SDS011;16985;50.814;8.530;2023-02-03T08:56:47;14.05;;;7.40;;
30173;SDS011;16985;50.814;8.530;2023-02-03T08:59:14;13.43;;;6.75;;
30173;SDS011;16985;50.814;8.530;2023-02-03T09:01:40;12.00;;;6.68;;
30173;SDS011;16985;50.814;8.530;2023-02-03T09:04:09;13.95;;;7.40;;
30173;SDS011;16985;50.814;8.530;2023-02-03T09:06:36;14.65;;;6.55;;
30173;SDS011;16985;50.814;8.530;2023-02-03T09:09:03;11.50;;;6.07;;
30173;SDS011;16985;50.814;8.530;2023-02-03T09:11:29;11.07;;;5.70;;
30173;SDS011;16985;50.814;8.530;2023-02-03T09:13:55;11.05;;;5.70;;
30173;SDS011;16985;50.814;8.530;2023-02-03T09:16:22;5.50;;;4.55;;
30173;SDS011;16985;50.814;8.530;2023-02-03T09:18:49;6.40;;;5.40;;
30173;SDS011;16985;50.814;8.530;2023-02-03T09:21:15;8.57;;;4.53;;
30173;SDS011;16985;50.814;8.530;2023-02-03T09:23:42;9.43;;;4.10;;
30173;SDS011;16985;50.814;8.530;2023-02-03T09:26:10;8.05;;;4.40;;
30173;SDS011;16985;50.814;8.530;2023-02-03T09:28:37;9.68;;;4.15;;
30173;SDS011;16985;50.814;8.530;2023-02-03T09:31:08;8.05;;;3.92;;
30173;SDS011;16985;50.814;8.530;2023-02-03T09:33:36;4.70;;;4.07;;
30173;SDS011;16985;50.814;8.530;2023-02-03T09:36:03;4.47;;;3.67;;
30173;SDS011;16985;50.814;8.530;2023-02-03T09:38:33;6.80;;;3.25;;
30173;SDS011;16985;50.814;8.530;2023-02-03T09:41:00;6.53;;;3.38;;
30173;SDS011;16985;50.814;8.530;2023-02-03T09:43:55;3.90;;;2.97;;
30173;SDS011;16985;50.814;8.530;2023-02-03T09:46:39;4.07;;;3.25;;
30173;SDS011;16985;50.814;8.530;2023-02-03T09:49:17;4.53;;;2.72;;
30173;SDS011;16985;50.814;8.530;2023-02-03T09:52:03;4.03;;;2.83;;
30173;SDS011;16985;50.814;8.530;2023-02-03T09:57:36;5.20;;;2.65;;
30173;SDS011;16985;50.814;8.530;2023-02-03T10:00:13;5.70;;;2.80;;
30173;SDS011;16985;50.814;8.530;2023-02-03T10:08:45;2.08;;;1.88;;
30173;SDS011;16985;50.814;8.530;2023-02-03T10:11:53;2.65;;;2.10;;
30173;SDS011;16985;50.814;8.530;2023-02-03T10:17:47;5.53;;;3.00;;
30173;SDS011;16985;50.814;8.530;2023-02-03T10:20:27;6.03;;;3.30;;
30173;SDS011;16985;50.814;8.530;2023-02-03T10:23:06;3.60;;;2.70;;
30173;SDS011;16985;50.814;8.530;2023-02-03T10:26:00;4.10;;;2.05;;
30173;SDS011;16985;50.814;8.530;2023-02-03T10:28:31;2.90;;;2.00;;
30173;SDS011;16985;50.814;8.530;2023-02-03T10:31:05;3.60;;;2.50;;
30173;SDS011;16985;50.814;8.530;2023-02-03T10:33:43;3.78;;;2.47;;
30173;SDS011;16985;50.814;8.530;2023-02-03T10:36:19;2.53;;;2.00;;
30173;SDS011;16985;50.814;8.530;2023-02-03T10:41:23;2.22;;;2.03;;
30173;SDS011;16985;50.814;8.530;2023-02-03T10:43:49;2.47;;;2.28;;
30173;SDS011;16985;50.814;8.530;2023-02-03T10:46:25;5.50;;;2.08;;
30173;SDS011;16985;50.814;8.530;2023-02-03T10:48:53;4.70;;;1.85;;
30173;SDS011;16985;50.814;8.530;2023-02-03T10:51:21;3.20;;;2.05;;
30173;SDS011;16985;50.814;8.530;2023-02-03T10:53:55;2.67;;;1.88;;
30173;SDS011;16985;50.814;8.530;2023-02-03T10:56:23;2.63;;;2.03;;
30173;SDS011;16985;50.814;8.530;2023-02-03T10:58:54;3.60;;;1.80;;
30173;SDS011;16985;50.814;8.530;2023-02-03T11:01:26;1.80;;;1.70;;
30173;SDS011;16985;50.814;8.530;2023-02-03T11:04:05;2.38;;;2.17;;
30173;SDS011;16985;50.814;8.530;2023-02-03T11:06:52;2.38;;;2.17;;
30173;SDS011;16985;50.814;8.530;2023-02-03T11:09:42;1.60;;;1.50;;
30173;SDS011;16985;50.814;8.530;2023-02-03T11:12:14;2.47;;;1.67;;
30173;SDS011;16985;50.814;8.530;2023-02-03T11:14:46;3.65;;;2.15;;
30173;SDS011;16985;50.814;8.530;2023-02-03T11:17:16;4.40;;;2.83;;
30173;SDS011;16985;50.814;8.530;2023-02-03T11:19:52;2.50;;;2.03;;
30173;SDS011;16985;50.814;8.530;2023-02-03T11:22:30;3.08;;;2.28;;
30173;SDS011;16985;50.814;8.530;2023-02-03T11:25:00;5.93;;;3.10;;
30173;SDS011;16985;50.814;8.530;2023-02-03T11:27:29;2.50;;;2.30;;
30173;SDS011;16985;50.814;8.530;2023-02-03T11:30:12;2.92;;;2.63;;
30173;SDS011;16985;50.814;8.530;2023-02-03T11:32:41;2.40;;;1.80;;
30173;SDS011;16985;50.814;8.530;2023-02-03T11:35:13;2.40;;;2.20;;
30173;SDS011;16985;50.814;8.530;2023-02-03T11:37:44;4.28;;;2.03;;
30173;SDS011;16985;50.814;8.530;2023-02-03T11:42:43;3.85;;;2.20;;
30173;SDS011;16985;50.814;8.530;2023-02-03T11:45:27;2.83;;;2.05;;
30173;SDS011;16985;50.814;8.530;2023-02-03T11:53:26;3.53;;;2.15;;
30173;SDS011;16985;50.814;8.530;2023-02-03T12:07:17;3.28;;;2.50;;
30173;SDS011;16985;50.814;8.530;2023-02-03T12:13:11;3.47;;;2.33;;
30173;SDS011;16985;50.814;8.530;2023-02-03T12:24:18;4.97;;;2.50;;
30173;SDS011;16985;50.814;8.530;2023-02-03T12:27:17;4.70;;;2.38;;
30173;SDS011;16985;50.814;8.530;2023-02-03T12:30:04;4.32;;;2.80;;
30173;SDS011;16985;50.814;8.530;2023-02-03T12:32:58;3.50;;;2.63;;
30173;SDS011;16985;50.814;8.530;2023-02-03T12:35:32;2.80;;;2.50;;
30173;SDS011;16985;50.814;8.530;2023-02-03T12:38:14;3.38;;;2.17;;
30173;SDS011;16985;50.814;8.530;2023-02-03T12:40:52;2.85;;;2.47;;
30173;SDS011;16985;50.814;8.530;2023-02-03T12:46:08;4.68;;;3.05;;
30173;SDS011;16985;50.814;8.530;2023-02-03T12:49:14;3.70;;;2.85;;
30173;SDS011;16985;50.814;8.530;2023-02-03T12:51:50;5.18;;;2.55;;
30173;SDS011;16985;50.814;8.530;2023-02-03T13:05:34;7.50;;;3.65;;
30173;SDS011;16985;50.814;8.530;2023-02-03T13:08:32;6.30;;;4.57;;
30173;SDS011;16985;50.814;8.530;2023-02-03T13:11:35;5.78;;;3.95;;
30173;SDS011;16985;50.814;8.530;2023-02-03T13:14:26;5.47;;;4.03;;
30173;SDS011;16985;50.814;8.530;2023-02-03T13:17:17;6.15;;;4.18;;
30173;SDS011;16985;50.814;8.530;2023-02-03T13:19:51;6.55;;;4.50;;
30173;SDS011;16985;50.814;8.530;2023-02-03T13:22:21;7.28;;;4.70;;
30173;SDS011;16985;50.814;8.530;2023-02-03T13:24:53;4.82;;;4.25;;
30173;SDS011;16985;50.814;8.530;2023-02-03T13:36:36;8.25;;;4.78;;
30173;SDS011;16985;50.814;8.530;2023-02-03T13:42:19;6.50;;;4.28;;
30173;SDS011;16985;50.814;8.530;2023-02-03T13:44:56;11.07;;;4.28;;
30173;SDS011;16985;50.814;8.530;2023-02-03T13:47:48;7.43;;;4.25;;
30173;SDS011;16985;50.814;8.530;2023-02-03T13:53:00;6.18;;;4.60;;
30173;SDS011;16985;50.814;8.530;2023-02-03T13:55:43;7.95;;;4.65;;
30173;SDS011;16985;50.814;8.530;2023-02-03T13:58:19;6.40;;;3.70;;
30173;SDS011;16985;50.814;8.530;2023-02-03T14:03:48;7.22;;;4.30;;
30173;SDS011;16985;50.814;8.530;2023-02-03T14:14:40;7.72;;;4.43;;
30173;SDS011;16985;50.814;8.530;2023-02-03T14:20:00;7.63;;;4.57;;
30173;SDS011;16985;50.814;8.530;2023-02-03T14:22:37;8.10;;;4.68;;
30173;SDS011;16985;50.814;8.530;2023-02-03T14:25:04;6.43;;;4.45;;
30173;SDS011;16985;50.814;8.530;2023-02-03T14:27:31;5.28;;;4.00;;
30173;SDS011;16985;50.814;8.530;2023-02-03T14:30:08;5.00;;;3.40;;
30173;SDS011;16985;50.814;8.530;2023-02-03T14:32:47;5.95;;;4.22;;
30173;SDS011;16985;50.814;8.530;2023-02-03T14:35:37;4.65;;;3.80;;
30173;SDS011;16985;50.814;8.530;2023-02-03T14:43:25;4.72;;;3.53;;
30173;SDS011;16985;50.814;8.530;2023-02-03T14:46:06;7.70;;;3.55;;
30173;SDS011;16985;50.814;8.530;2023-02-03T14:51:56;4.07;;;3.47;;
30173;SDS011;16985;50.814;8.530;2023-02-03T14:54:46;4.03;;;3.33;;
30173;SDS011;16985;50.814;8.530;2023-02-03T14:58:06;4.00;;;3.00;;
30173;SDS011;16985;50.814;8.530;2023-02-03T15:00:48;3.70;;;3.10;;
30173;SDS011;16985;50.814;8.530;2023-02-03T15:03:18;5.40;;;3.20;;
30173;SDS011;16985;50.814;8.530;2023-02-03T15:08:29;9.02;;;3.55;;
30173;SDS011;16985;50.814;8.530;2023-02-03T15:11:25;6.75;;;4.00;;
30173;SDS011;16985;50.814;8.530;2023-02-03T15:16:52;9.02;;;4.38;;
30173;SDS011;16985;50.814;8.530;2023-02-03T15:19:37;8.18;;;4.95;;
30173;SDS011;16985;50.814;8.530;2023-02-03T15:22:16;5.80;;;3.85;;
30173;SDS011;16985;50.814;8.530;2023-02-03T15:24:51;8.68;;;4.95;;
30173;SDS011;16985;50.814;8.530;2023-02-03T15:27:26;8.20;;;4.65;;
30173;SDS011;16985;50.814;8.530;2023-02-03T15:29:54;7.20;;;5.05;;
30173;SDS011;16985;50.814;8.530;2023-02-03T15:32:24;6.60;;;4.20;;
30173;SDS011;16985;50.814;8.530;2023-02-03T15:34:58;6.07;;;4.40;;
30173;SDS011;16985;50.814;8.530;2023-02-03T15:37:36;9.05;;;4.45;;
30173;SDS011;16985;50.814;8.530;2023-02-03T15:40:20;6.95;;;3.92;;
30173;SDS011;16985;50.814;8.530;2023-02-03T15:48:17;9.68;;;2.83;;
30173;SDS011;16985;50.814;8.530;2023-02-03T15:51:07;8.27;;;2.80;;
30173;SDS011;16985;50.814;8.530;2023-02-03T15:57:25;10.48;;;3.17;;
30173;SDS011;16985;50.814;8.530;2023-02-03T15:59:59;12.15;;;2.65;;
30173;SDS011;16985;50.814;8.530;2023-02-03T16:02:41;13.60;;;3.00;;
30173;SDS011;16985;50.814;8.530;2023-02-03T16:11:19;7.43;;;2.42;;
30173;SDS011;16985;50.814;8.530;2023-02-03T16:13:59;18.65;;;3.35;;
30173;SDS011;16985;50.814;8.530;2023-02-03T16:19:13;11.80;;;3.20;;
30173;SDS011;16985;50.814;8.530;2023-02-03T16:33:04;13.70;;;3.53;;
30173;SDS011;16985;50.814;8.530;2023-02-03T16:35:59;15.75;;;4.25;;
30173;SDS011;16985;50.814;8.530;2023-02-03T16:38:52;17.42;;;3.72;;
30173;SDS011;16985;50.814;8.530;2023-02-03T16:41:36;18.73;;;3.40;;
30173;SDS011;16985;50.814;8.530;2023-02-03T16:44:21;20.80;;;4.00;;
30173;SDS011;16985;50.814;8.530;2023-02-03T16:47:20;12.52;;;3.17;;
30173;SDS011;16985;50.814;8.530;2023-02-03T16:50:11;19.70;;;4.40;;
30173;SDS011;16985;50.814;8.530;2023-02-03T16:53:03;15.80;;;4.05;;
30173;SDS011;16985;50.814;8.530;2023-02-03T16:55:30;13.35;;;3.20;;
30173;SDS011;16985;50.814;8.530;2023-02-03T16:57:55;17.60;;;3.28;;
30173;SDS011;16985;50.814;8.530;2023-02-03T17:00:21;20.98;;;4.28;;
30173;SDS011;16985;50.814;8.530;2023-02-03T17:02:48;25.33;;;4.05;;
30173;SDS011;16985;50.814;8.530;2023-02-03T17:05:15;16.87;;;3.17;;
30173;SDS011;16985;50.814;8.530;2023-02-03T17:07:42;19.88;;;3.83;;
30173;SDS011;16985;50.814;8.530;2023-02-03T17:10:08;20.35;;;4.60;;
30173;SDS011;16985;50.814;8.530;2023-02-03T17:12:35;20.70;;;4.22;;
30173;SDS011;16985;50.814;8.530;2023-02-03T17:15:05;19.95;;;4.45;;
30173;SDS011;16985;50.814;8.530;2023-02-03T17:17:31;19.25;;;4.22;;
30173;SDS011;16985;50.814;8.530;2023-02-03T17:19:57;24.83;;;4.70;;
30173;SDS011;16985;50.814;8.530;2023-02-03T17:22:23;22.33;;;6.25;;
30173;SDS011;16985;50.814;8.530;2023-02-03T17:24:51;21.90;;;4.50;;
30173;SDS011;16985;50.814;8.530;2023-02-03T17:27:17;27.17;;;5.38;;
30173;SDS011;16985;50.814;8.530;2023-02-03T17:29:44;31.65;;;4.78;;
30173;SDS011;16985;50.814;8.530;2023-02-03T17:32:10;16.98;;;5.93;;
30173;SDS011;16985;50.814;8.530;2023-02-03T17:34:39;29.08;;;5.57;;
30173;SDS011;16985;50.814;8.530;2023-02-03T17:37:05;20.40;;;5.07;;
30173;SDS011;16985;50.814;8.530;2023-02-03T17:39:32;20.50;;;4.22;;
30173;SDS011;16985;50.814;8.530;2023-02-03T17:41:58;27.55;;;5.47;;